sensor_id;sensor_type;location;lat;lon;timestamp;P1;durP1;ratioP1;P2;durP2;ratioP2
71048;SDS011;58704;53.358;-6.238;2022-11-21T00:00:22;10.87;;;2.40;;
71048;SDS011;58704;53.358;-6.238;2022-11-21T00:02:48;21.42;;;3.00;;
71048;SDS011;58704;53.358;-6.238;2022-11-21T00:05:13;20.33;;;3.07;;
71048;SDS011;58704;53.358;-6.238;2022-11-21T00:07:39;13.07;;;3.30;;
71048;SDS011;58704;53.358;-6.238;2022-11-21T00:10:04;14.47;;;2.93;;
71048;SDS011;58704;53.358;-6.238;2022-11-21T00:12:30;15.90;;;2.38;;
71048;SDS011;58704;53.358;-6.238;2022-11-21T00:14:56;15.17;;;2.87;;
71048;SDS011;58704;53.358;-6.238;2022-11-21T00:17:21;19.95;;;2.65;;
71048;SDS011;58704;53.358;-6.238;2022-11-21T00:19:46;16.57;;;2.47;;
71048;SDS011;58704;53.358;-6.238;2022-11-21T00:22:12;17.47;;;2.80;;
71048;SDS011;58704;53.358;-6.238;2022-11-21T00:24:37;23.10;;;4.13;;
71048;SDS011;58704;53.358;-6.238;2022-11-21T00:27:03;15.60;;;3.08;;
71048;SDS011;58704;53.358;-6.238;2022-11-21T00:29:28;22.27;;;3.90;;
71048;SDS011;58704;53.358;-6.238;2022-11-21T00:31:54;17.97;;;2.60;;
71048;SDS011;58704;53.358;-6.238;2022-11-21T00:34:19;14.88;;;2.90;;
71048;SDS011;58704;53.358;-6.238;2022-11-21T00:36:45;19.17;;;2.70;;
71048;SDS011;58704;53.358;-6.238;2022-11-21T00:39:10;17.20;;;2.60;;
71048;SDS011;58704;53.358;-6.238;2022-11-21T00:41:35;18.47;;;2.80;;
71048;SDS011;58704;53.358;-6.238;2022-11-21T00:44:01;21.77;;;3.55;;
71048;SDS011;58704;53.358;-6.238;2022-11-21T00:46:26;20.37;;;3.37;;
71048;SDS011;58704;53.358;-6.238;2022-11-21T00:48:52;19.63;;;2.73;;
71048;SDS011;58704;53.358;-6.238;2022-11-21T00:51:17;18.90;;;3.63;;
71048;SDS011;58704;53.358;-6.238;2022-11-21T00:53:42;19.60;;;3.10;;
71048;SDS011;58704;53.358;-6.238;2022-11-21T00:56:08;25.27;;;3.22;;
71048;SDS011;58704;53.358;-6.238;2022-11-21T00:58:34;13.07;;;2.53;;
71048;SDS011;58704;53.358;-6.238;2022-11-21T01:01:03;14.10;;;2.58;;
71048;SDS011;58704;53.358;-6.238;2022-11-21T01:03:30;12.77;;;2.87;;
71048;SDS011;58704;53.358;-6.238;2022-11-21T01:06:03;17.10;;;4.03;;
71048;SDS011;58704;53.358;-6.238;2022-11-21T01:08:30;25.42;;;4.40;;
71048;SDS011;58704;53.358;-6.238;2022-11-21T01:10:55;12.47;;;2.93;;
71048;SDS011;58704;53.358;-6.238;2022-11-21T01:13:21;14.02;;;2.53;;
71048;SDS011;58704;53.358;-6.238;2022-11-21T01:15:46;20.27;;;3.30;;
71048;SDS011;58704;53.358;-6.238;2022-11-21T01:18:11;12.57;;;3.03;;
71048;SDS011;58704;53.358;-6.238;2022-11-21T01:20:40;11.13;;;2.20;;
71048;SDS011;58704;53.358;-6.238;2022-11-21T01:23:05;21.42;;;2.70;;
71048;SDS011;58704;53.358;-6.238;2022-11-21T01:25:34;13.23;;;2.53;;
71048;SDS011;58704;53.358;-6.238;2022-11-21T01:28:00;19.83;;;2.97;;
71048;SDS011;58704;53.358;-6.238;2022-11-21T01:30:25;16.63;;;3.07;;
71048;SDS011;58704;53.358;-6.238;2022-11-21T01:32:51;16.13;;;3.13;;
71048;SDS011;58704;53.358;-6.238;2022-11-21T01:35:16;14.35;;;2.67;;
71048;SDS011;58704;53.358;-6.238;2022-11-21T01:37:45;18.80;;;3.10;;
71048;SDS011;58704;53.358;-6.238;2022-11-21T01:40:11;13.75;;;2.80;;
71048;SDS011;58704;53.358;-6.238;2022-11-21T01:42:48;10.57;;;2.25;;
71048;SDS011;58704;53.358;-6.238;2022-11-21T01:48:13;17.02;;;2.42;;
71048;SDS011;58704;53.358;-6.238;2022-11-21T01:50:40;20.10;;;3.33;;
71048;SDS011;58704;53.358;-6.238;2022-11-21T01:53:08;15.50;;;3.20;;
71048;SDS011;58704;53.358;-6.238;2022-11-21T01:55:33;16.08;;;3.22;;
71048;SDS011;58704;53.358;-6.238;2022-11-21T01:57:59;19.83;;;3.20;;
71048;SDS011;58704;53.358;-6.238;2022-11-21T02:00:26;15.63;;;2.83;;
71048;SDS011;58704;53.358;-6.238;2022-11-21T02:02:56;22.15;;;3.17;;
71048;SDS011;58704;53.358;-6.238;2022-11-21T02:05:24;17.88;;;3.03;;
71048;SDS011;58704;53.358;-6.238;2022-11-21T02:07:51;15.10;;;2.30;;
71048;SDS011;58704;53.358;-6.238;2022-11-21T02:10:19;17.30;;;2.53;;
71048;SDS011;58704;53.358;-6.238;2022-11-21T02:12:49;15.23;;;3.40;;
71048;SDS011;58704;53.358;-6.238;2022-11-21T02:15:22;19.73;;;2.97;;
71048;SDS011;58704;53.358;-6.238;2022-11-21T02:17:48;26.23;;;3.23;;
71048;SDS011;58704;53.358;-6.238;2022-11-21T02:20:15;15.50;;;2.58;;
71048;SDS011;58704;53.358;-6.238;2022-11-21T02:25:36;25.17;;;3.03;;
71048;SDS011;58704;53.358;-6.238;2022-11-21T02:28:20;15.93;;;2.60;;
71048;SDS011;58704;53.358;-6.238;2022-11-21T02:30:47;11.52;;;2.92;;
71048;SDS011;58704;53.358;-6.238;2022-11-21T02:33:13;17.90;;;3.23;;
71048;SDS011;58704;53.358;-6.238;2022-11-21T02:35:38;14.07;;;2.27;;
71048;SDS011;58704;53.358;-6.238;2022-11-21T02:38:13;14.05;;;2.72;;
71048;SDS011;58704;53.358;-6.238;2022-11-21T02:40:48;15.47;;;2.10;;
71048;SDS011;58704;53.358;-6.238;2022-11-21T02:45:45;12.75;;;2.40;;
71048;SDS011;58704;53.358;-6.238;2022-11-21T02:48:11;18.10;;;2.53;;
71048;SDS011;58704;53.358;-6.238;2022-11-21T02:50:38;13.55;;;2.75;;
71048;SDS011;58704;53.358;-6.238;2022-11-21T02:53:05;13.43;;;2.40;;
71048;SDS011;58704;53.358;-6.238;2022-11-21T02:55:32;19.17;;;3.55;;
71048;SDS011;58704;53.358;-6.238;2022-11-21T02:57:58;10.27;;;2.60;;
71048;SDS011;58704;53.358;-6.238;2022-11-21T03:00:24;18.13;;;3.20;;
71048;SDS011;58704;53.358;-6.238;2022-11-21T03:02:49;23.20;;;4.20;;
71048;SDS011;58704;53.358;-6.238;2022-11-21T03:05:16;17.33;;;3.08;;
71048;SDS011;58704;53.358;-6.238;2022-11-21T03:07:42;20.83;;;3.13;;
71048;SDS011;58704;53.358;-6.238;2022-11-21T03:10:08;15.85;;;2.75;;
71048;SDS011;58704;53.358;-6.238;2022-11-21T03:12:34;15.02;;;2.90;;
71048;SDS011;58704;53.358;-6.238;2022-11-21T03:15:01;17.73;;;2.90;;
71048;SDS011;58704;53.358;-6.238;2022-11-21T03:17:27;17.67;;;3.78;;
71048;SDS011;58704;53.358;-6.238;2022-11-21T03:19:52;18.73;;;3.10;;
71048;SDS011;58704;53.358;-6.238;2022-11-21T03:22:17;15.00;;;3.17;;
71048;SDS011;58704;53.358;-6.238;2022-11-21T03:24:43;15.10;;;2.97;;
71048;SDS011;58704;53.358;-6.238;2022-11-21T03:27:08;19.23;;;3.37;;
71048;SDS011;58704;53.358;-6.238;2022-11-21T03:29:33;21.55;;;3.30;;
71048;SDS011;58704;53.358;-6.238;2022-11-21T03:31:59;14.77;;;2.63;;
71048;SDS011;58704;53.358;-6.238;2022-11-21T03:34:24;20.10;;;3.30;;
71048;SDS011;58704;53.358;-6.238;2022-11-21T03:36:50;16.43;;;3.00;;
71048;SDS011;58704;53.358;-6.238;2022-11-21T03:39:15;24.30;;;4.50;;
71048;SDS011;58704;53.358;-6.238;2022-11-21T03:41:41;21.17;;;2.97;;
71048;SDS011;58704;53.358;-6.238;2022-11-21T03:44:08;25.03;;;3.53;;
71048;SDS011;58704;53.358;-6.238;2022-11-21T03:46:35;19.23;;;3.08;;
71048;SDS011;58704;53.358;-6.238;2022-11-21T03:49:02;26.95;;;3.17;;
71048;SDS011;58704;53.358;-6.238;2022-11-21T03:51:27;27.43;;;4.47;;
71048;SDS011;58704;53.358;-6.238;2022-11-21T03:53:53;26.77;;;3.47;;
71048;SDS011;58704;53.358;-6.238;2022-11-21T03:56:18;23.33;;;3.73;;
71048;SDS011;58704;53.358;-6.238;2022-11-21T03:58:44;34.40;;;3.67;;
71048;SDS011;58704;53.358;-6.238;2022-11-21T04:01:10;32.50;;;4.20;;
71048;SDS011;58704;53.358;-6.238;2022-11-21T04:03:47;27.98;;;4.35;;
71048;SDS011;58704;53.358;-6.238;2022-11-21T04:06:15;26.85;;;4.35;;
71048;SDS011;58704;53.358;-6.238;2022-11-21T04:08:43;35.13;;;4.13;;
71048;SDS011;58704;53.358;-6.238;2022-11-21T04:11:13;34.53;;;4.75;;
71048;SDS011;58704;53.358;-6.238;2022-11-21T04:13:40;44.77;;;4.40;;
71048;SDS011;58704;53.358;-6.238;2022-11-21T04:16:07;32.17;;;5.07;;
71048;SDS011;58704;53.358;-6.238;2022-11-21T04:18:33;32.45;;;3.90;;
71048;SDS011;58704;53.358;-6.238;2022-11-21T04:21:08;29.00;;;3.75;;
71048;SDS011;58704;53.358;-6.238;2022-11-21T04:23:35;36.75;;;4.18;;
71048;SDS011;58704;53.358;-6.238;2022-11-21T04:26:02;39.27;;;4.43;;
71048;SDS011;58704;53.358;-6.238;2022-11-21T04:28:37;24.73;;;4.20;;
71048;SDS011;58704;53.358;-6.238;2022-11-21T04:31:05;26.73;;;3.83;;
71048;SDS011;58704;53.358;-6.238;2022-11-21T04:33:31;32.33;;;4.20;;
71048;SDS011;58704;53.358;-6.238;2022-11-21T04:35:57;23.60;;;3.42;;
71048;SDS011;58704;53.358;-6.238;2022-11-21T04:38:25;21.03;;;3.87;;
71048;SDS011;58704;53.358;-6.238;2022-11-21T04:40:55;25.58;;;4.43;;
71048;SDS011;58704;53.358;-6.238;2022-11-21T04:43:22;30.20;;;3.72;;
71048;SDS011;58704;53.358;-6.238;2022-11-21T04:45:50;32.80;;;4.28;;
71048;SDS011;58704;53.358;-6.238;2022-11-21T04:48:17;33.83;;;4.67;;
71048;SDS011;58704;53.358;-6.238;2022-11-21T04:50:48;30.23;;;4.03;;
71048;SDS011;58704;53.358;-6.238;2022-11-21T04:53:14;31.17;;;3.97;;
71048;SDS011;58704;53.358;-6.238;2022-11-21T04:55:42;22.00;;;3.70;;
71048;SDS011;58704;53.358;-6.238;2022-11-21T04:58:08;24.13;;;4.57;;
71048;SDS011;58704;53.358;-6.238;2022-11-21T05:00:33;28.07;;;4.20;;
71048;SDS011;58704;53.358;-6.238;2022-11-21T05:03:06;31.07;;;4.83;;
71048;SDS011;58704;53.358;-6.238;2022-11-21T05:05:32;30.98;;;3.58;;
71048;SDS011;58704;53.358;-6.238;2022-11-21T05:07:58;25.70;;;3.92;;
71048;SDS011;58704;53.358;-6.238;2022-11-21T05:10:23;27.40;;;3.37;;
71048;SDS011;58704;53.358;-6.238;2022-11-21T05:12:55;22.27;;;3.40;;
71048;SDS011;58704;53.358;-6.238;2022-11-21T05:15:40;18.25;;;2.58;;
71048;SDS011;58704;53.358;-6.238;2022-11-21T05:18:07;23.55;;;2.63;;
71048;SDS011;58704;53.358;-6.238;2022-11-21T05:20:37;19.90;;;3.05;;
71048;SDS011;58704;53.358;-6.238;2022-11-21T05:23:03;20.73;;;2.90;;
71048;SDS011;58704;53.358;-6.238;2022-11-21T05:25:28;18.77;;;3.27;;
71048;SDS011;58704;53.358;-6.238;2022-11-21T08:21:31;33.05;;;4.30;;
71048;SDS011;58704;53.358;-6.238;2022-11-21T08:23:56;21.83;;;4.50;;
71048;SDS011;58704;53.358;-6.238;2022-11-21T08:26:22;28.03;;;3.67;;
71048;SDS011;58704;53.358;-6.238;2022-11-21T08:28:47;23.92;;;2.97;;
71048;SDS011;58704;53.358;-6.238;2022-11-21T08:31:13;27.40;;;3.70;;
71048;SDS011;58704;53.358;-6.238;2022-11-21T08:33:41;22.97;;;3.27;;
71048;SDS011;58704;53.358;-6.238;2022-11-21T08:36:07;18.35;;;2.90;;
71048;SDS011;58704;53.358;-6.238;2022-11-21T08:38:34;24.05;;;3.92;;
71048;SDS011;58704;53.358;-6.238;2022-11-21T08:41:00;27.87;;;3.17;;
71048;SDS011;58704;53.358;-6.238;2022-11-21T08:43:44;40.55;;;4.85;;
71048;SDS011;58704;53.358;-6.238;2022-11-21T08:46:10;36.17;;;4.23;;
71048;SDS011;58704;53.358;-6.238;2022-11-21T08:48:35;32.03;;;3.63;;
71048;SDS011;58704;53.358;-6.238;2022-11-21T08:51:01;36.40;;;6.13;;
71048;SDS011;58704;53.358;-6.238;2022-11-21T08:53:29;28.00;;;3.17;;
71048;SDS011;58704;53.358;-6.238;2022-11-21T08:55:55;34.03;;;3.47;;
71048;SDS011;58704;53.358;-6.238;2022-11-21T08:58:20;38.97;;;4.97;;
71048;SDS011;58704;53.358;-6.238;2022-11-21T09:00:46;22.27;;;3.03;;
71048;SDS011;58704;53.358;-6.238;2022-11-21T09:03:13;28.65;;;4.20;;
71048;SDS011;58704;53.358;-6.238;2022-11-21T09:05:43;27.53;;;3.30;;
71048;SDS011;58704;53.358;-6.238;2022-11-21T09:08:09;37.28;;;4.65;;
71048;SDS011;58704;53.358;-6.238;2022-11-21T09:10:35;31.83;;;3.97;;
71048;SDS011;58704;53.358;-6.238;2022-11-21T09:13:00;20.00;;;2.90;;
71048;SDS011;58704;53.358;-6.238;2022-11-21T09:15:26;37.97;;;4.05;;
71048;SDS011;58704;53.358;-6.238;2022-11-21T09:18:10;40.72;;;4.53;;
71048;SDS011;58704;53.358;-6.238;2022-11-21T09:20:42;31.17;;;3.80;;
71048;SDS011;58704;53.358;-6.238;2022-11-21T09:23:11;37.38;;;4.72;;
71048;SDS011;58704;53.358;-6.238;2022-11-21T09:25:38;31.35;;;3.75;;
71048;SDS011;58704;53.358;-6.238;2022-11-21T09:28:04;41.33;;;4.13;;
71048;SDS011;58704;53.358;-6.238;2022-11-21T09:30:30;23.45;;;2.80;;
71048;SDS011;58704;53.358;-6.238;2022-11-21T09:33:03;18.70;;;3.67;;
71048;SDS011;58704;53.358;-6.238;2022-11-21T09:35:30;27.05;;;4.28;;
71048;SDS011;58704;53.358;-6.238;2022-11-21T09:37:56;26.57;;;4.27;;
71048;SDS011;58704;53.358;-6.238;2022-11-21T09:40:24;22.63;;;3.40;;
71048;SDS011;58704;53.358;-6.238;2022-11-21T09:45:49;21.90;;;3.40;;
71048;SDS011;58704;53.358;-6.238;2022-11-21T09:48:46;27.95;;;3.08;;
71048;SDS011;58704;53.358;-6.238;2022-11-21T09:51:17;23.43;;;3.77;;
71048;SDS011;58704;53.358;-6.238;2022-11-21T09:54:00;22.83;;;3.13;;
71048;SDS011;58704;53.358;-6.238;2022-11-21T09:56:29;37.28;;;4.78;;
71048;SDS011;58704;53.358;-6.238;2022-11-21T10:01:21;29.00;;;3.50;;
71048;SDS011;58704;53.358;-6.238;2022-11-21T10:03:47;10.77;;;2.37;;
71048;SDS011;58704;53.358;-6.238;2022-11-21T10:14:18;6.70;;;1.10;;
71048;SDS011;58704;53.358;-6.238;2022-11-21T10:16:50;4.17;;;1.00;;
71048;SDS011;58704;53.358;-6.238;2022-11-21T10:19:29;3.22;;;1.00;;
71048;SDS011;58704;53.358;-6.238;2022-11-21T10:25:31;2.90;;;0.98;;
71048;SDS011;58704;53.358;-6.238;2022-11-21T10:28:20;2.78;;;0.85;;
71048;SDS011;58704;53.358;-6.238;2022-11-21T10:30:56;5.33;;;1.30;;
71048;SDS011;58704;53.358;-6.238;2022-11-21T10:59:19;6.57;;;1.52;;
71048;SDS011;58704;53.358;-6.238;2022-11-21T11:04:27;4.80;;;1.27;;
71048;SDS011;58704;53.358;-6.238;2022-11-21T11:06:56;5.18;;;1.55;;
71048;SDS011;58704;53.358;-6.238;2022-11-21T11:09:28;8.70;;;1.80;;
71048;SDS011;58704;53.358;-6.238;2022-11-21T11:12:15;5.55;;;1.40;;
71048;SDS011;58704;53.358;-6.238;2022-11-21T11:15:18;7.60;;;2.13;;
71048;SDS011;58704;53.358;-6.238;2022-11-21T11:17:54;6.72;;;1.88;;
71048;SDS011;58704;53.358;-6.238;2022-11-21T11:23:13;8.60;;;2.80;;
71048;SDS011;58704;53.358;-6.238;2022-11-21T11:25:41;13.10;;;3.33;;
71048;SDS011;58704;53.358;-6.238;2022-11-21T11:28:13;8.15;;;2.75;;
71048;SDS011;58704;53.358;-6.238;2022-11-21T11:30:38;8.50;;;2.97;;
71048;SDS011;58704;53.358;-6.238;2022-11-21T11:33:26;9.73;;;2.97;;
71048;SDS011;58704;53.358;-6.238;2022-11-21T11:35:52;6.25;;;3.00;;
71048;SDS011;58704;53.358;-6.238;2022-11-21T11:38:18;6.72;;;2.55;;
71048;SDS011;58704;53.358;-6.238;2022-11-21T11:40:45;6.23;;;1.60;;
71048;SDS011;58704;53.358;-6.238;2022-11-21T11:46:52;4.95;;;1.73;;
71048;SDS011;58704;53.358;-6.238;2022-11-21T11:49:51;8.35;;;1.75;;
71048;SDS011;58704;53.358;-6.238;2022-11-21T11:55:52;4.53;;;1.40;;
71048;SDS011;58704;53.358;-6.238;2022-11-21T11:58:01;7.20;;;1.13;;
71048;SDS011;58704;53.358;-6.238;2022-11-21T12:06:04;3.78;;;1.30;;
71048;SDS011;58704;53.358;-6.238;2022-11-21T12:09:05;5.73;;;1.57;;
71048;SDS011;58704;53.358;-6.238;2022-11-21T12:17:40;8.02;;;1.50;;
71048;SDS011;58704;53.358;-6.238;2022-11-21T12:20:16;7.05;;;1.80;;
71048;SDS011;58704;53.358;-6.238;2022-11-21T12:22:44;9.30;;;1.90;;
71048;SDS011;58704;53.358;-6.238;2022-11-21T12:25:11;8.02;;;2.20;;
71048;SDS011;58704;53.358;-6.238;2022-11-21T12:27:37;6.22;;;1.50;;
71048;SDS011;58704;53.358;-6.238;2022-11-21T12:32:56;7.10;;;2.28;;
71048;SDS011;58704;53.358;-6.238;2022-11-21T12:35:35;9.30;;;2.73;;
71048;SDS011;58704;53.358;-6.238;2022-11-21T12:41:13;7.43;;;2.00;;
71048;SDS011;58704;53.358;-6.238;2022-11-21T12:46:42;11.98;;;3.10;;
71048;SDS011;58704;53.358;-6.238;2022-11-21T12:52:28;11.30;;;4.32;;
71048;SDS011;58704;53.358;-6.238;2022-11-21T12:57:54;6.13;;;2.13;;
71048;SDS011;58704;53.358;-6.238;2022-11-21T13:05:33;8.85;;;2.25;;
71048;SDS011;58704;53.358;-6.238;2022-11-21T13:08:07;10.48;;;2.22;;
71048;SDS011;58704;53.358;-6.238;2022-11-21T13:10:35;16.45;;;2.42;;
71048;SDS011;58704;53.358;-6.238;2022-11-21T13:18:31;8.27;;;2.45;;
71048;SDS011;58704;53.358;-6.238;2022-11-21T13:21:00;16.92;;;2.58;;
71048;SDS011;58704;53.358;-6.238;2022-11-21T13:26:01;9.73;;;2.40;;
71048;SDS011;58704;53.358;-6.238;2022-11-21T13:28:47;9.38;;;2.67;;
71048;SDS011;58704;53.358;-6.238;2022-11-21T13:31:31;10.37;;;2.40;;
71048;SDS011;58704;53.358;-6.238;2022-11-21T13:33:57;15.57;;;3.08;;
71048;SDS011;58704;53.358;-6.238;2022-11-21T14:05:56;10.02;;;2.28;;
71048;SDS011;58704;53.358;-6.238;2022-11-21T14:10:47;5.32;;;1.92;;
71048;SDS011;58704;53.358;-6.238;2022-11-21T14:13:17;8.02;;;1.83;;
71048;SDS011;58704;53.358;-6.238;2022-11-21T14:16:13;7.18;;;1.83;;
71048;SDS011;58704;53.358;-6.238;2022-11-21T14:18:42;9.50;;;1.92;;
71048;SDS011;58704;53.358;-6.238;2022-11-21T14:21:17;7.20;;;2.20;;
71048;SDS011;58704;53.358;-6.238;2022-11-21T14:23:45;7.85;;;2.05;;
71048;SDS011;58704;53.358;-6.238;2022-11-21T14:26:13;10.27;;;2.80;;
71048;SDS011;58704;53.358;-6.238;2022-11-21T14:28:41;6.85;;;2.88;;
71048;SDS011;58704;53.358;-6.238;2022-11-21T14:31:07;8.63;;;3.33;;
71048;SDS011;58704;53.358;-6.238;2022-11-21T14:33:35;9.75;;;3.25;;
71048;SDS011;58704;53.358;-6.238;2022-11-21T14:36:08;11.95;;;3.08;;
71048;SDS011;58704;53.358;-6.238;2022-11-21T14:43:50;28.67;;;7.07;;
71048;SDS011;58704;53.358;-6.238;2022-11-21T14:48:55;55.60;;;14.65;;
71048;SDS011;58704;53.358;-6.238;2022-11-21T14:51:23;8.97;;;2.97;;
71048;SDS011;58704;53.358;-6.238;2022-11-21T14:53:50;19.63;;;5.50;;
71048;SDS011;58704;53.358;-6.238;2022-11-21T14:56:25;63.28;;;23.73;;
71048;SDS011;58704;53.358;-6.238;2022-11-21T14:58:52;27.38;;;10.55;;
71048;SDS011;58704;53.358;-6.238;2022-11-21T15:01:28;9.55;;;4.18;;
71048;SDS011;58704;53.358;-6.238;2022-11-21T15:03:56;26.73;;;9.27;;
71048;SDS011;58704;53.358;-6.238;2022-11-21T15:06:23;11.82;;;3.28;;
71048;SDS011;58704;53.358;-6.238;2022-11-21T15:08:50;14.90;;;4.43;;
71048;SDS011;58704;53.358;-6.238;2022-11-21T15:11:16;23.43;;;11.57;;
71048;SDS011;58704;53.358;-6.238;2022-11-21T15:13:42;21.38;;;7.65;;
71048;SDS011;58704;53.358;-6.238;2022-11-21T15:16:09;30.35;;;13.00;;
71048;SDS011;58704;53.358;-6.238;2022-11-21T15:18:35;9.17;;;3.33;;
71048;SDS011;58704;53.358;-6.238;2022-11-21T15:21:05;13.63;;;4.22;;
71048;SDS011;58704;53.358;-6.238;2022-11-21T15:23:31;13.45;;;3.20;;
71048;SDS011;58704;53.358;-6.238;2022-11-21T15:25:58;16.57;;;5.67;;
71048;SDS011;58704;53.358;-6.238;2022-11-21T15:28:24;18.20;;;4.30;;
71048;SDS011;58704;53.358;-6.238;2022-11-21T15:36:27;14.82;;;5.50;;
71048;SDS011;58704;53.358;-6.238;2022-11-21T15:44:14;12.23;;;3.47;;
71048;SDS011;58704;53.358;-6.238;2022-11-21T15:46:44;10.25;;;3.05;;
71048;SDS011;58704;53.358;-6.238;2022-11-21T15:49:11;9.68;;;3.03;;
71048;SDS011;58704;53.358;-6.238;2022-11-21T15:51:39;9.90;;;2.90;;
71048;SDS011;58704;53.358;-6.238;2022-11-21T15:54:06;13.45;;;3.60;;
71048;SDS011;58704;53.358;-6.238;2022-11-21T15:56:34;13.32;;;2.47;;
71048;SDS011;58704;53.358;-6.238;2022-11-21T15:58:59;14.47;;;5.23;;
71048;SDS011;58704;53.358;-6.238;2022-11-21T16:01:26;7.30;;;2.17;;
71048;SDS011;58704;53.358;-6.238;2022-11-21T16:04:04;11.02;;;3.88;;
71048;SDS011;58704;53.358;-6.238;2022-11-21T16:06:30;10.07;;;2.92;;
71048;SDS011;58704;53.358;-6.238;2022-11-21T16:08:56;12.07;;;3.77;;
71048;SDS011;58704;53.358;-6.238;2022-11-21T16:11:23;12.73;;;3.53;;
71048;SDS011;58704;53.358;-6.238;2022-11-21T16:13:49;9.32;;;2.42;;
71048;SDS011;58704;53.358;-6.238;2022-11-21T16:16:25;19.25;;;4.68;;
71048;SDS011;58704;53.358;-6.238;2022-11-21T16:18:55;8.68;;;2.80;;
71048;SDS011;58704;53.358;-6.238;2022-11-21T16:21:21;16.07;;;3.17;;
71048;SDS011;58704;53.358;-6.238;2022-11-21T16:23:47;15.48;;;3.58;;
71048;SDS011;58704;53.358;-6.238;2022-11-21T16:26:12;6.33;;;2.53;;
71048;SDS011;58704;53.358;-6.238;2022-11-21T16:28:38;7.90;;;3.78;;
71048;SDS011;58704;53.358;-6.238;2022-11-21T16:31:04;6.13;;;2.30;;
71048;SDS011;58704;53.358;-6.238;2022-11-21T16:33:29;16.60;;;4.25;;
71048;SDS011;58704;53.358;-6.238;2022-11-21T16:35:56;11.83;;;2.63;;
71048;SDS011;58704;53.358;-6.238;2022-11-21T16:38:25;10.48;;;3.25;;
71048;SDS011;58704;53.358;-6.238;2022-11-21T16:40:52;6.45;;;2.38;;
71048;SDS011;58704;53.358;-6.238;2022-11-21T16:43:21;7.57;;;3.10;;
71048;SDS011;58704;53.358;-6.238;2022-11-21T16:45:47;8.48;;;2.13;;
71048;SDS011;58704;53.358;-6.238;2022-11-21T16:48:13;7.88;;;2.28;;
71048;SDS011;58704;53.358;-6.238;2022-11-21T16:50:39;7.87;;;2.17;;
71048;SDS011;58704;53.358;-6.238;2022-11-21T16:53:04;13.33;;;2.77;;
71048;SDS011;58704;53.358;-6.238;2022-11-21T16:55:30;9.32;;;2.45;;
71048;SDS011;58704;53.358;-6.238;2022-11-21T16:57:55;9.93;;;2.30;;
71048;SDS011;58704;53.358;-6.238;2022-11-21T17:00:23;10.85;;;3.58;;
71048;SDS011;58704;53.358;-6.238;2022-11-21T17:02:49;33.72;;;9.10;;
71048;SDS011;58704;53.358;-6.238;2022-11-21T17:05:15;9.73;;;2.90;;
71048;SDS011;58704;53.358;-6.238;2022-11-21T17:07:41;21.77;;;6.88;;
71048;SDS011;58704;53.358;-6.238;2022-11-21T17:10:06;24.70;;;8.37;;
71048;SDS011;58704;53.358;-6.238;2022-11-21T17:12:38;16.95;;;6.55;;
71048;SDS011;58704;53.358;-6.238;2022-11-21T17:15:06;13.45;;;5.80;;
71048;SDS011;58704;53.358;-6.238;2022-11-21T17:17:33;12.40;;;5.47;;
71048;SDS011;58704;53.358;-6.238;2022-11-21T17:20:02;14.93;;;4.88;;
71048;SDS011;58704;53.358;-6.238;2022-11-21T17:22:28;11.13;;;4.35;;
71048;SDS011;58704;53.358;-6.238;2022-11-21T17:24:53;11.10;;;4.10;;
71048;SDS011;58704;53.358;-6.238;2022-11-21T17:27:19;12.35;;;5.07;;
71048;SDS011;58704;53.358;-6.238;2022-11-21T17:29:45;13.27;;;3.95;;
71048;SDS011;58704;53.358;-6.238;2022-11-21T17:32:11;13.83;;;3.90;;
71048;SDS011;58704;53.358;-6.238;2022-11-21T17:34:36;15.43;;;4.17;;
71048;SDS011;58704;53.358;-6.238;2022-11-21T17:37:02;16.45;;;3.92;;
71048;SDS011;58704;53.358;-6.238;2022-11-21T17:39:27;10.80;;;4.37;;
71048;SDS011;58704;53.358;-6.238;2022-11-21T17:41:53;11.30;;;3.40;;
71048;SDS011;58704;53.358;-6.238;2022-11-21T17:44:18;15.73;;;4.05;;
71048;SDS011;58704;53.358;-6.238;2022-11-21T17:46:44;14.00;;;4.47;;
71048;SDS011;58704;53.358;-6.238;2022-11-21T17:49:09;16.60;;;3.73;;
71048;SDS011;58704;53.358;-6.238;2022-11-21T17:51:36;10.63;;;3.97;;
71048;SDS011;58704;53.358;-6.238;2022-11-21T17:54:02;12.43;;;3.15;;
71048;SDS011;58704;53.358;-6.238;2022-11-21T17:56:29;13.23;;;2.97;;
71048;SDS011;58704;53.358;-6.238;2022-11-21T17:58:58;12.13;;;3.53;;
71048;SDS011;58704;53.358;-6.238;2022-11-21T18:01:23;14.10;;;3.38;;
71048;SDS011;58704;53.358;-6.238;2022-11-21T18:03:56;14.83;;;4.20;;
71048;SDS011;58704;53.358;-6.238;2022-11-21T18:06:23;14.38;;;4.82;;
71048;SDS011;58704;53.358;-6.238;2022-11-21T18:08:49;12.93;;;3.20;;
71048;SDS011;58704;53.358;-6.238;2022-11-21T18:11:16;12.63;;;3.60;;
71048;SDS011;58704;53.358;-6.238;2022-11-21T18:13:43;14.07;;;3.23;;
71048;SDS011;58704;53.358;-6.238;2022-11-21T18:16:10;13.93;;;3.25;;
71048;SDS011;58704;53.358;-6.238;2022-11-21T18:18:37;8.27;;;3.60;;
71048;SDS011;58704;53.358;-6.238;2022-11-21T18:21:07;9.75;;;3.22;;
71048;SDS011;58704;53.358;-6.238;2022-11-21T18:23:34;11.38;;;4.32;;
71048;SDS011;58704;53.358;-6.238;2022-11-21T18:26:01;18.03;;;4.40;;
71048;SDS011;58704;53.358;-6.238;2022-11-21T18:28:27;13.88;;;3.80;;
71048;SDS011;58704;53.358;-6.238;2022-11-21T18:30:52;11.57;;;3.83;;
71048;SDS011;58704;53.358;-6.238;2022-11-21T18:33:27;12.43;;;4.40;;
71048;SDS011;58704;53.358;-6.238;2022-11-21T18:35:52;23.15;;;7.85;;
71048;SDS011;58704;53.358;-6.238;2022-11-21T18:38:18;25.43;;;9.20;;
71048;SDS011;58704;53.358;-6.238;2022-11-21T18:40:43;18.20;;;7.00;;
71048;SDS011;58704;53.358;-6.238;2022-11-21T18:43:09;16.03;;;6.27;;
71048;SDS011;58704;53.358;-6.238;2022-11-21T18:45:35;17.33;;;5.05;;
71048;SDS011;58704;53.358;-6.238;2022-11-21T18:48:01;16.52;;;4.82;;
71048;SDS011;58704;53.358;-6.238;2022-11-21T18:50:27;15.70;;;4.70;;
71048;SDS011;58704;53.358;-6.238;2022-11-21T18:52:52;14.52;;;4.85;;
71048;SDS011;58704;53.358;-6.238;2022-11-21T18:55:18;12.33;;;4.90;;
71048;SDS011;58704;53.358;-6.238;2022-11-21T18:57:46;13.02;;;4.90;;
71048;SDS011;58704;53.358;-6.238;2022-11-21T19:00:12;15.13;;;4.07;;
71048;SDS011;58704;53.358;-6.238;2022-11-21T19:02:37;11.07;;;4.68;;
71048;SDS011;58704;53.358;-6.238;2022-11-21T19:05:03;12.47;;;3.57;;
71048;SDS011;58704;53.358;-6.238;2022-11-21T19:07:28;14.13;;;4.60;;
71048;SDS011;58704;53.358;-6.238;2022-11-21T19:09:54;13.60;;;4.22;;
71048;SDS011;58704;53.358;-6.238;2022-11-21T19:12:19;16.17;;;5.33;;
71048;SDS011;58704;53.358;-6.238;2022-11-21T19:14:45;12.90;;;5.55;;
71048;SDS011;58704;53.358;-6.238;2022-11-21T19:17:11;17.57;;;6.00;;
71048;SDS011;58704;53.358;-6.238;2022-11-21T19:19:36;13.60;;;4.70;;
71048;SDS011;58704;53.358;-6.238;2022-11-21T19:22:02;15.93;;;4.43;;
71048;SDS011;58704;53.358;-6.238;2022-11-21T19:24:28;12.85;;;4.10;;
71048;SDS011;58704;53.358;-6.238;2022-11-21T19:26:54;13.50;;;5.40;;
71048;SDS011;58704;53.358;-6.238;2022-11-21T19:29:19;17.95;;;6.75;;
71048;SDS011;58704;53.358;-6.238;2022-11-21T19:31:44;15.87;;;5.10;;
71048;SDS011;58704;53.358;-6.238;2022-11-21T19:34:10;11.30;;;5.00;;
71048;SDS011;58704;53.358;-6.238;2022-11-21T19:36:39;23.02;;;10.50;;
71048;SDS011;58704;53.358;-6.238;2022-11-21T19:39:05;21.02;;;8.82;;
71048;SDS011;58704;53.358;-6.238;2022-11-21T19:41:31;14.93;;;7.33;;
71048;SDS011;58704;53.358;-6.238;2022-11-21T19:43:57;13.52;;;4.53;;
71048;SDS011;58704;53.358;-6.238;2022-11-21T19:46:24;11.07;;;5.25;;
71048;SDS011;58704;53.358;-6.238;2022-11-21T19:48:54;15.47;;;5.97;;
71048;SDS011;58704;53.358;-6.238;2022-11-21T19:51:20;13.98;;;6.10;;
71048;SDS011;58704;53.358;-6.238;2022-11-21T19:53:47;13.43;;;5.03;;
71048;SDS011;58704;53.358;-6.238;2022-11-21T19:56:19;16.02;;;5.80;;